Time;durP1;ratioP1;P1;durP2;ratioP2;P2;SDS_P1;SDS_P2;PMS_P1;PMS_P2;Temp;Humidity;BMP_temperature;BMP_pressure;BME280_temperature;BME280_humidity;BME280_pressure;Samples;Min_cycle;Max_cycle;Signal;HPM_P1;HPM_P2
2023/12/18 00:01:59;;;;;;;32.20;13.98;;;;;;;;;;5073334;28;20358;-32
2023/12/18 00:04:24;;;;;;;28.35;12.88;;;;;;;;;;5073310;28;20020;-32
2023/12/18 00:06:50;;;;;;;27.02;13.18;;;;;;;;;;5072993;28;20499;-32
2023/12/18 00:09:15;;;;;;;33.90;13.17;;;;;;;;;;5072914;28;20020;-32
2023/12/18 00:11:40;;;;;;;26.13;12.90;;;;;;;;;;5073039;28;20247;-32
2023/12/18 00:14:05;;;;;;;32.20;14.23;;;;;;;;;;5073186;28;20258;-32
2023/12/18 00:16:31;;;;;;;29.73;12.37;;;;;;;;;;5072886;28;20042;-33
2023/12/18 00:18:56;;;;;;;26.90;13.00;;;;;;;;;;5073448;28;20262;-32
2023/12/18 00:21:21;;;;;;;28.30;13.10;;;;;;;;;;5072839;28;20789;-32
2023/12/18 00:23:46;;;;;;;40.87;13.87;;;;;;;;;;5073053;28;20263;-32
2023/12/18 00:26:11;;;;;;;24.00;12.77;;;;;;;;;;5072824;28;20747;-31
2023/12/18 00:28:36;;;;;;;28.00;14.00;;;;;;;;;;5075103;28;20261;-32
2023/12/18 00:31:02;;;;;;;29.23;13.73;;;;;;;;;;5076380;28;20020;-32
2023/12/18 00:33:27;;;;;;;29.83;13.57;;;;;;;;;;5076346;28;20024;-32
2023/12/18 00:35:52;;;;;;;26.93;12.53;;;;;;;;;;5076227;28;20382;-32
2023/12/18 00:38:17;;;;;;;29.10;12.67;;;;;;;;;;5076222;28;20266;-32
2023/12/18 00:40:42;;;;;;;32.63;12.90;;;;;;;;;;5076172;28;20726;-32
2023/12/18 00:43:08;;;;;;;28.30;12.43;;;;;;;;;;5076122;28;20350;-31
2023/12/18 00:45:33;;;;;;;30.40;12.90;;;;;;;;;;5076637;28;20016;-32
2023/12/18 00:47:58;;;;;;;25.30;12.83;;;;;;;;;;5076043;28;20077;-32
2023/12/18 00:50:23;;;;;;;29.92;12.13;;;;;;;;;;5076742;28;20277;-32
2023/12/18 00:52:48;;;;;;;25.83;12.47;;;;;;;;;;5076303;28;20021;-32
2023/12/18 00:55:13;;;;;;;31.40;12.40;;;;;;;;;;5076262;28;20281;-32
2023/12/18 00:57:39;;;;;;;29.67;11.57;;;;;;;;;;5075888;28;20606;-32
2023/12/18 01:00:04;;;;;;;28.07;12.50;;;;;;;;;;5076405;28;20262;-32
2023/12/18 01:02:29;;;;;;;24.33;12.43;;;;;;;;;;5075822;28;20793;-31
2023/12/18 01:04:55;;;;;;;25.60;11.97;;;;;;;;;;5075769;28;20021;-32
2023/12/18 01:07:20;;;;;;;26.60;11.70;;;;;;;;;;5075742;28;20306;-32
2023/12/18 01:09:45;;;;;;;31.15;12.65;;;;;;;;;;5075906;28;20254;-31
2023/12/18 01:12:10;;;;;;;32.67;12.67;;;;;;;;;;5075477;28;20074;-32
2023/12/18 01:14:35;;;;;;;31.73;11.80;;;;;;;;;;5075767;28;20340;-32
2023/12/18 01:17:01;;;;;;;33.40;12.38;;;;;;;;;;5075453;28;20290;-32
2023/12/18 01:19:26;;;;;;;32.83;12.23;;;;;;;;;;5075708;28;20078;-31
2023/12/18 01:21:51;;;;;;;29.80;13.32;;;;;;;;;;5075979;28;20025;-32
2023/12/18 01:24:17;;;;;;;31.73;12.15;;;;;;;;;;5075576;28;20070;-32
2023/12/18 01:26:43;;;;;;;27.30;11.88;;;;;;;;;;5075590;28;20013;-31
2023/12/18 01:29:08;;;;;;;22.95;11.50;;;;;;;;;;5075616;28;20020;-31
2023/12/18 01:31:33;;;;;;;28.02;12.93;;;;;;;;;;5075483;28;20017;-32
2023/12/18 01:33:58;;;;;;;27.85;11.45;;;;;;;;;;5075185;28;20091;-32
2023/12/18 01:36:24;;;;;;;26.92;12.25;;;;;;;;;;5075507;28;20518;-32
2023/12/18 01:38:49;;;;;;;29.70;12.48;;;;;;;;;;5075096;28;20023;-34
2023/12/18 01:41:14;;;;;;;25.98;12.10;;;;;;;;;;5074704;28;20020;-33
2023/12/18 01:43:40;;;;;;;29.30;12.17;;;;;;;;;;5075068;28;20052;-33
2023/12/18 01:46:05;;;;;;;29.47;12.30;;;;;;;;;;5074951;28;20722;-32
2023/12/18 01:48:31;;;;;;;32.95;12.18;;;;;;;;;;5074989;28;20271;-32
2023/12/18 01:50:56;;;;;;;29.02;12.07;;;;;;;;;;5075434;28;20028;-32
2023/12/18 01:53:24;;;;;;;26.42;12.30;;;;;;;;;;5074869;28;20464;-32
2023/12/18 01:55:49;;;;;;;28.73;12.57;;;;;;;;;;5075398;28;20112;-34
2023/12/18 01:58:15;;;;;;;25.95;11.77;;;;;;;;;;5074616;28;20051;-31
2023/12/18 02:00:41;;;;;;;29.92;12.60;;;;;;;;;;5075252;28;20024;-31
2023/12/18 02:03:07;;;;;;;28.35;12.43;;;;;;;;;;5074432;28;20040;-31
2023/12/18 02:05:33;;;;;;;28.88;12.13;;;;;;;;;;5074862;28;20016;-32
2023/12/18 02:07:59;;;;;;;27.27;12.10;;;;;;;;;;5074567;28;20479;-31
2023/12/18 02:10:24;;;;;;;29.10;12.40;;;;;;;;;;5074697;28;20518;-32
2023/12/18 02:12:49;;;;;;;26.87;12.03;;;;;;;;;;5074391;28;20460;-32
2023/12/18 02:15:14;;;;;;;22.77;11.43;;;;;;;;;;5074862;28;20325;-32
2023/12/18 02:17:39;;;;;;;30.52;12.55;;;;;;;;;;5073016;28;20776;-31
2023/12/18 02:20:06;;;;;;;27.80;12.13;;;;;;;;;;5074299;28;20031;-30
2023/12/18 02:22:35;;;;;;;26.55;11.70;;;;;;;;;;5074510;28;20383;-32
2023/12/18 02:25:00;;;;;;;28.88;11.95;;;;;;;;;;5074752;28;20161;-36
2023/12/18 02:27:26;;;;;;;29.70;12.57;;;;;;;;;;5074185;28;20489;-32
2023/12/18 02:29:51;;;;;;;25.98;13.23;;;;;;;;;;5074614;28;20247;-32
2023/12/18 02:32:16;;;;;;;24.60;12.20;;;;;;;;;;5074096;28;20085;-32
2023/12/18 02:34:41;;;;;;;25.57;12.03;;;;;;;;;;5073955;28;20283;-34
2023/12/18 02:37:06;;;;;;;32.87;12.07;;;;;;;;;;5074257;28;20267;-32
2023/12/18 02:39:31;;;;;;;31.27;11.77;;;;;;;;;;5073966;28;20598;-31
2023/12/18 02:41:57;;;;;;;27.33;12.50;;;;;;;;;;5074507;28;20247;-32
2023/12/18 02:44:22;;;;;;;29.00;12.37;;;;;;;;;;5073888;28;20801;-33
2023/12/18 02:46:47;;;;;;;25.70;11.40;;;;;;;;;;5074447;28;20243;-31
2023/12/18 02:49:12;;;;;;;33.65;12.30;;;;;;;;;;5073968;28;20246;-32
2023/12/18 02:51:37;;;;;;;27.23;11.60;;;;;;;;;;5073238;28;20020;-31
2023/12/18 02:54:02;;;;;;;26.13;11.43;;;;;;;;;;5073766;28;20243;-31
2023/12/18 02:56:28;;;;;;;26.10;11.45;;;;;;;;;;5073685;28;20286;-32
2023/12/18 02:58:53;;;;;;;22.38;11.07;;;;;;;;;;5073901;28;20020;-32
2023/12/18 03:01:18;;;;;;;26.23;11.10;;;;;;;;;;5073524;28;20386;-32
2023/12/18 03:03:43;;;;;;;23.90;11.10;;;;;;;;;;5073562;28;20082;-32
2023/12/18 03:06:08;;;;;;;24.70;11.17;;;;;;;;;;5073561;28;20606;-32
2023/12/18 03:08:34;;;;;;;26.47;11.53;;;;;;;;;;5074081;28;20259;-32
2023/12/18 03:10:59;;;;;;;33.80;12.50;;;;;;;;;;5073697;28;20255;-32
2023/12/18 03:13:24;;;;;;;22.70;11.80;;;;;;;;;;5074014;28;20266;-31
2023/12/18 03:15:49;;;;;;;26.67;11.40;;;;;;;;;;5073700;28;20028;-32
2023/12/18 03:18:14;;;;;;;26.48;11.63;;;;;;;;;;5073959;28;20255;-32
2023/12/18 03:20:39;;;;;;;28.97;12.00;;;;;;;;;;5074043;28;20075;-32
2023/12/18 03:23:05;;;;;;;31.20;11.73;;;;;;;;;;5073457;28;20733;-32
2023/12/18 03:25:30;;;;;;;22.02;11.50;;;;;;;;;;5073617;28;20263;-31
2023/12/18 03:27:55;;;;;;;29.30;11.77;;;;;;;;;;5073937;28;20051;-32
2023/12/18 03:30:20;;;;;;;22.10;11.60;;;;;;;;;;5072400;28;20588;-32
2023/12/18 03:32:45;;;;;;;23.27;11.83;;;;;;;;;;5073942;28;20297;-32
2023/12/18 03:35:11;;;;;;;22.73;11.70;;;;;;;;;;5073212;28;20768;-32
2023/12/18 03:37:36;;;;;;;29.42;12.30;;;;;;;;;;5073189;28;20273;-32
2023/12/18 03:40:01;;;;;;;25.95;11.18;;;;;;;;;;5073122;28;20016;-31
2023/12/18 03:42:26;;;;;;;30.08;11.95;;;;;;;;;;5073376;28;20024;-32
2023/12/18 03:44:51;;;;;;;26.00;11.37;;;;;;;;;;5073106;28;20020;-32
2023/12/18 03:47:17;;;;;;;28.97;11.80;;;;;;;;;;5073618;28;20286;-32
2023/12/18 03:49:42;;;;;;;29.08;11.13;;;;;;;;;;5073304;28;20265;-32
2023/12/18 03:52:07;;;;;;;30.55;11.27;;;;;;;;;;5073352;28;20481;-32
2023/12/18 03:54:32;;;;;;;30.03;11.07;;;;;;;;;;5073011;28;20017;-32
2023/12/18 03:56:57;;;;;;;23.17;11.00;;;;;;;;;;5073323;28;20251;-32
2023/12/18 03:59:22;;;;;;;25.70;11.50;;;;;;;;;;5072979;28;20290;-32
2023/12/18 04:01:48;;;;;;;29.07;11.10;;;;;;;;;;5073304;28;20104;-31
2023/12/18 04:04:13;;;;;;;30.50;12.10;;;;;;;;;;5076165;28;20251;-32
2023/12/18 04:06:41;;;;;;;22.55;10.80;;;;;;;;;;5076815;28;20286;-31
2023/12/18 04:09:06;;;;;;;30.77;11.48;;;;;;;;;;5076841;28;20052;-32
2023/12/18 04:11:31;;;;;;;29.37;12.07;;;;;;;;;;5077086;28;20024;-32
2023/12/18 04:13:56;;;;;;;25.03;11.47;;;;;;;;;;5076733;28;20250;-31
2023/12/18 04:16:22;;;;;;;29.85;12.52;;;;;;;;;;5076765;28;20283;-32
2023/12/18 04:18:49;;;;;;;25.45;11.40;;;;;;;;;;5076584;28;20008;-30
2023/12/18 04:21:14;;;;;;;25.48;11.20;;;;;;;;;;5077086;28;20021;-31
2023/12/18 04:23:40;;;;;;;21.27;10.40;;;;;;;;;;5077076;28;20012;-31
2023/12/18 04:26:05;;;;;;;22.77;10.60;;;;;;;;;;5076521;28;20262;-31
2023/12/18 04:28:30;;;;;;;24.23;10.33;;;;;;;;;;5077004;28;20396;-36
2023/12/18 04:30:55;;;;;;;22.08;10.48;;;;;;;;;;5076398;28;20267;-30
2023/12/18 04:33:21;;;;;;;26.93;10.70;;;;;;;;;;5076923;28;20060;-32
2023/12/18 04:35:46;;;;;;;30.73;10.88;;;;;;;;;;5076214;28;20286;-31
2023/12/18 04:38:11;;;;;;;24.20;10.63;;;;;;;;;;5076247;28;20017;-32
2023/12/18 04:40:36;;;;;;;28.60;11.23;;;;;;;;;;5076220;28;20247;-32
2023/12/18 04:43:01;;;;;;;27.87;11.77;;;;;;;;;;5076143;28;20253;-32
2023/12/18 04:45:26;;;;;;;27.93;10.83;;;;;;;;;;5076118;28;20258;-32
2023/12/18 04:47:51;;;;;;;27.07;10.83;;;;;;;;;;5076019;28;20302;-31
2023/12/18 04:50:17;;;;;;;30.33;10.70;;;;;;;;;;5076556;28;20247;-32
2023/12/18 04:52:42;;;;;;;25.83;10.35;;;;;;;;;;5075990;28;20278;-31
2023/12/18 04:55:07;;;;;;;26.67;11.40;;;;;;;;;;5075836;28;20048;-31
2023/12/18 04:57:33;;;;;;;26.85;10.50;;;;;;;;;;5075900;28;20092;-31
2023/12/18 04:59:58;;;;;;;21.35;10.63;;;;;;;;;;5076602;28;20108;-32
2023/12/18 05:02:23;;;;;;;26.17;10.85;;;;;;;;;;5075677;28;20391;-32
2023/12/18 05:04:48;;;;;;;22.20;10.80;;;;;;;;;;5076327;28;20020;-32
2023/12/18 05:07:13;;;;;;;24.20;10.45;;;;;;;;;;5075629;28;20388;-32
2023/12/18 05:09:39;;;;;;;25.98;10.60;;;;;;;;;;5075976;28;20025;-32
2023/12/18 05:12:04;;;;;;;25.92;10.73;;;;;;;;;;5075798;28;20367;-32
2023/12/18 05:14:29;;;;;;;27.35;11.20;;;;;;;;;;5074560;28;20463;-32
2023/12/18 05:16:55;;;;;;;26.70;11.50;;;;;;;;;;5075846;28;20017;-32
2023/12/18 05:19:20;;;;;;;22.03;10.60;;;;;;;;;;5075549;28;20243;-33
2023/12/18 05:21:45;;;;;;;27.73;11.57;;;;;;;;;;5075434;28;20258;-32
2023/12/18 05:24:10;;;;;;;30.03;11.67;;;;;;;;;;5076041;28;20247;-32
2023/12/18 05:26:35;;;;;;;27.83;11.27;;;;;;;;;;5075351;28;20341;-33
2023/12/18 05:29:01;;;;;;;24.13;11.32;;;;;;;;;;5074051;28;20278;-33
2023/12/18 05:31:26;;;;;;;24.42;11.63;;;;;;;;;;5076362;28;20019;-33
2023/12/18 05:33:51;;;;;;;24.90;10.90;;;;;;;;;;5075262;28;20021;-33
2023/12/18 05:36:17;;;;;;;30.02;11.82;;;;;;;;;;5075049;28;20377;-33
2023/12/18 05:38:42;;;;;;;27.08;11.77;;;;;;;;;;5074982;28;20592;-33
2023/12/18 05:41:08;;;;;;;31.55;11.43;;;;;;;;;;5075355;28;20028;-33
2023/12/18 05:43:34;;;;;;;23.38;11.40;;;;;;;;;;5075107;28;20020;-32
2023/12/18 05:45:59;;;;;;;27.55;11.50;;;;;;;;;;5075245;28;20106;-33
2023/12/18 05:48:24;;;;;;;30.25;11.65;;;;;;;;;;5075387;28;20020;-33
2023/12/18 05:50:49;;;;;;;26.52;10.85;;;;;;;;;;5074729;28;20016;-33
2023/12/18 05:53:14;;;;;;;28.20;11.40;;;;;;;;;;5074808;28;20028;-32
2023/12/18 05:55:39;;;;;;;24.80;11.13;;;;;;;;;;5075278;28;20303;-33
2023/12/18 05:58:05;;;;;;;34.20;12.27;;;;;;;;;;5074774;28;20251;-33
2023/12/18 06:00:30;;;;;;;26.40;11.43;;;;;;;;;;5074920;28;20254;-33
2023/12/18 06:02:55;;;;;;;32.73;12.97;;;;;;;;;;5074482;28;20044;-33
2023/12/18 06:05:20;;;;;;;29.63;12.40;;;;;;;;;;5075115;28;20304;-34
2023/12/18 06:07:45;;;;;;;22.25;12.05;;;;;;;;;;5073274;28;20277;-33
2023/12/18 06:10:11;;;;;;;31.40;13.30;;;;;;;;;;5074783;28;20400;-33
2023/12/18 06:12:36;;;;;;;29.58;12.57;;;;;;;;;;5074321;28;20262;-32
2023/12/18 06:15:01;;;;;;;28.35;12.00;;;;;;;;;;5074309;28;20024;-32
2023/12/18 06:17:27;;;;;;;26.90;12.55;;;;;;;;;;5074591;28;20020;-33
2023/12/18 06:19:52;;;;;;;28.17;11.63;;;;;;;;;;5074793;28;20026;-33
2023/12/18 06:22:17;;;;;;;22.13;11.47;;;;;;;;;;5074158;28;20021;-33
2023/12/18 06:24:43;;;;;;;25.60;12.25;;;;;;;;;;5074481;28;20371;-32
2023/12/18 06:27:08;;;;;;;25.20;12.57;;;;;;;;;;5074369;28;20025;-32
2023/12/18 06:29:33;;;;;;;25.30;12.20;;;;;;;;;;5074432;28;20021;-33
2023/12/18 06:31:58;;;;;;;27.27;13.30;;;;;;;;;;5074018;28;20807;-32
2023/12/18 06:34:23;;;;;;;26.92;12.55;;;;;;;;;;5074029;28;20331;-33
2023/12/18 06:36:49;;;;;;;29.52;13.48;;;;;;;;;;5073887;28;20108;-33
2023/12/18 06:39:14;;;;;;;29.98;13.43;;;;;;;;;;5073862;28;20024;-33
2023/12/18 06:41:39;;;;;;;31.97;12.90;;;;;;;;;;5074466;28;20016;-34
2023/12/18 06:44:05;;;;;;;29.53;12.73;;;;;;;;;;5074079;28;20295;-32
2023/12/18 06:46:30;;;;;;;25.35;12.68;;;;;;;;;;5074044;28;20254;-34
2023/12/18 06:48:55;;;;;;;27.83;13.10;;;;;;;;;;5073783;28;20028;-34
2023/12/18 06:51:21;;;;;;;29.88;13.18;;;;;;;;;;5073549;28;20025;-33
2023/12/18 06:53:46;;;;;;;30.15;12.63;;;;;;;;;;5074099;28;20016;-33
2023/12/18 06:56:12;;;;;;;32.83;14.10;;;;;;;;;;5073646;28;20043;-32
2023/12/18 06:58:37;;;;;;;44.72;14.43;;;;;;;;;;5073607;28;20251;-33
2023/12/18 07:01:02;;;;;;;32.70;13.43;;;;;;;;;;5073591;28;20066;-32
2023/12/18 07:03:28;;;;;;;27.00;13.55;;;;;;;;;;5073576;28;20374;-33
2023/12/18 07:05:53;;;;;;;28.52;12.82;;;;;;;;;;5073854;28;20085;-33
2023/12/18 07:08:18;;;;;;;32.60;13.57;;;;;;;;;;5073819;28;20039;-33
2023/12/18 07:10:43;;;;;;;28.77;13.60;;;;;;;;;;5074054;28;20254;-33
2023/12/18 07:13:09;;;;;;;28.90;13.25;;;;;;;;;;5073393;28;20682;-33
2023/12/18 07:15:34;;;;;;;26.92;13.00;;;;;;;;;;5073915;28;20025;-31
2023/12/18 07:17:59;;;;;;;30.95;13.13;;;;;;;;;;5073629;28;20013;-31
2023/12/18 07:20:25;;;;;;;33.95;13.18;;;;;;;;;;5073335;28;20035;-32
2023/12/18 07:22:50;;;;;;;28.67;13.15;;;;;;;;;;5073148;28;20126;-32
2023/12/18 07:25:15;;;;;;;32.13;13.52;;;;;;;;;;5072698;28;20023;-32
2023/12/18 07:27:40;;;;;;;27.67;12.83;;;;;;;;;;5072810;28;20025;-32
2023/12/18 07:30:05;;;;;;;25.73;12.87;;;;;;;;;;5073491;28;20247;-32
2023/12/18 07:32:31;;;;;;;34.58;13.68;;;;;;;;;;5073174;28;20591;-32
2023/12/18 07:34:59;;;;;;;24.13;12.48;;;;;;;;;;5072897;28;20024;-32
2023/12/18 07:37:24;;;;;;;28.50;12.80;;;;;;;;;;5071242;28;20035;-32
2023/12/18 07:39:50;;;;;;;26.38;12.95;;;;;;;;;;5073088;28;20012;-32
2023/12/18 07:42:15;;;;;;;31.05;13.43;;;;;;;;;;5075177;28;20055;-33
2023/12/18 07:44:40;;;;;;;30.13;12.20;;;;;;;;;;5075117;28;20021;-32
2023/12/18 07:47:07;;;;;;;28.83;13.05;;;;;;;;;;5075039;28;20255;-32
2023/12/18 07:49:32;;;;;;;27.08;12.85;;;;;;;;;;5075241;28;20024;-32
2023/12/18 07:51:57;;;;;;;25.27;12.90;;;;;;;;;;5075066;28;20680;-32
2023/12/18 07:54:23;;;;;;;28.40;12.55;;;;;;;;;;5076465;28;20027;-32
2023/12/18 07:56:49;;;;;;;38.60;13.33;;;;;;;;;;5076894;28;20025;-32
2023/12/18 07:59:15;;;;;;;25.23;11.90;;;;;;;;;;5076898;28;20341;-32
2023/12/18 08:01:40;;;;;;;35.25;12.68;;;;;;;;;;5077173;28;20017;-32
2023/12/18 08:04:06;;;;;;;25.03;12.10;;;;;;;;;;5077225;28;20055;-32
2023/12/18 08:06:31;;;;;;;31.50;13.03;;;;;;;;;;5076789;28;20262;-31
2023/12/18 08:08:56;;;;;;;30.87;12.80;;;;;;;;;;5076782;28;20263;-32
2023/12/18 08:11:22;;;;;;;23.30;12.37;;;;;;;;;;5077175;28;20266;-35
2023/12/18 08:13:48;;;;;;;32.25;13.43;;;;;;;;;;5076984;28;20250;-32
2023/12/18 08:16:13;;;;;;;28.05;12.45;;;;;;;;;;5076807;28;20025;-32
2023/12/18 08:18:42;;;;;;;26.23;12.37;;;;;;;;;;5076649;28;20092;-31
2023/12/18 08:21:10;;;;;;;28.65;12.45;;;;;;;;;;5076575;28;20254;-31
2023/12/18 08:23:35;;;;;;;25.42;12.80;;;;;;;;;;5076495;28;20012;-32
2023/12/18 08:26:01;;;;;;;28.60;12.03;;;;;;;;;;5076452;28;20021;-32
2023/12/18 08:28:26;;;;;;;27.43;11.90;;;;;;;;;;5076706;28;20672;-33
2023/12/18 08:30:51;;;;;;;27.87;12.83;;;;;;;;;;5076936;28;20312;-32
2023/12/18 08:33:16;;;;;;;27.33;12.47;;;;;;;;;;5076351;28;20273;-32
2023/12/18 08:35:41;;;;;;;26.08;12.68;;;;;;;;;;5076153;28;20325;-32
2023/12/18 08:38:07;;;;;;;28.15;12.35;;;;;;;;;;5076482;28;20050;-31
2023/12/18 08:40:32;;;;;;;26.95;12.30;;;;;;;;;;5076229;28;20009;-32
2023/12/18 08:42:57;;;;;;;28.95;12.27;;;;;;;;;;5076168;28;20456;-32
2023/12/18 08:45:22;;;;;;;32.08;12.20;;;;;;;;;;5076059;28;20056;-32
2023/12/18 08:47:48;;;;;;;23.50;12.17;;;;;;;;;;5076078;28;20020;-32
2023/12/18 08:50:13;;;;;;;31.13;12.70;;;;;;;;;;5074618;28;20350;-32
2023/12/18 08:52:38;;;;;;;25.95;12.48;;;;;;;;;;5076008;28;20748;-32
2023/12/18 08:55:03;;;;;;;28.47;13.20;;;;;;;;;;5076468;28;20017;-32
2023/12/18 08:57:29;;;;;;;22.73;12.52;;;;;;;;;;5076465;28;20598;-32
2023/12/18 08:59:56;;;;;;;30.60;13.95;;;;;;;;;;5076126;28;20029;-32
2023/12/18 09:02:22;;;;;;;31.77;13.35;;;;;;;;;;5074409;28;20048;-31
2023/12/18 09:04:47;;;;;;;28.73;12.73;;;;;;;;;;5076382;28;20008;-32
2023/12/18 09:07:12;;;;;;;22.75;12.73;;;;;;;;;;5075680;28;20262;-32
2023/12/18 09:09:39;;;;;;;31.10;12.32;;;;;;;;;;5075950;28;20085;-31
2023/12/18 09:12:05;;;;;;;22.48;12.35;;;;;;;;;;5075798;28;20008;-32
2023/12/18 09:14:30;;;;;;;26.88;12.52;;;;;;;;;;5076157;28;20021;-32
2023/12/18 09:16:55;;;;;;;27.77;12.83;;;;;;;;;;5075759;28;20150;-32
2023/12/18 09:19:20;;;;;;;27.43;11.53;;;;;;;;;;5076052;28;20255;-33
2023/12/18 09:21:45;;;;;;;27.33;12.45;;;;;;;;;;5075436;28;20313;-32
2023/12/18 09:24:11;;;;;;;28.40;12.70;;;;;;;;;;5075494;28;20497;-33
2023/12/18 09:26:37;;;;;;;23.98;11.55;;;;;;;;;;5075901;28;20263;-32
2023/12/18 09:29:02;;;;;;;23.17;12.23;;;;;;;;;;5076401;28;20042;-32
2023/12/18 09:31:27;;;;;;;28.58;12.10;;;;;;;;;;5075577;28;20020;-32
2023/12/18 09:33:53;;;;;;;26.55;11.77;;;;;;;;;;5075197;28;20016;-32
2023/12/18 09:36:18;;;;;;;26.25;11.82;;;;;;;;;;5074421;28;20103;-32
2023/12/18 09:38:43;;;;;;;32.95;12.55;;;;;;;;;;5074306;28;20016;-32
2023/12/18 09:41:08;;;;;;;24.93;12.27;;;;;;;;;;5075471;28;20028;-32
2023/12/18 09:43:34;;;;;;;29.77;12.60;;;;;;;;;;5073848;28;20667;-32
2023/12/18 09:45:59;;;;;;;26.30;12.68;;;;;;;;;;5074934;28;20145;-32
2023/12/18 09:48:24;;;;;;;23.45;12.65;;;;;;;;;;5075236;28;20069;-32
2023/12/18 09:50:49;;;;;;;26.50;11.70;;;;;;;;;;5074918;28;20023;-32
2023/12/18 09:53:18;;;;;;;25.02;12.55;;;;;;;;;;5074845;28;20339;-32
2023/12/18 09:55:45;;;;;;;24.30;11.10;;;;;;;;;;5074696;28;20024;-32
2023/12/18 09:58:12;;;;;;;23.13;11.98;;;;;;;;;;5075066;28;20515;-32
2023/12/18 10:00:37;;;;;;;25.02;12.50;;;;;;;;;;5074526;28;20367;-32
2023/12/18 10:03:03;;;;;;;25.25;12.88;;;;;;;;;;5074631;28;20045;-32
2023/12/18 10:05:29;;;;;;;24.92;12.32;;;;;;;;;;5075133;28;20052;-32
2023/12/18 10:07:58;;;;;;;23.33;12.73;;;;;;;;;;5074621;28;20051;-32
2023/12/18 10:10:23;;;;;;;26.60;12.77;;;;;;;;;;5074461;28;20016;-32
2023/12/18 10:12:49;;;;;;;26.77;12.43;;;;;;;;;;5074423;28;20413;-32
2023/12/18 10:15:14;;;;;;;22.77;11.83;;;;;;;;;;5074815;28;20332;-32
2023/12/18 10:17:40;;;;;;;23.93;11.63;;;;;;;;;;5074431;28;20251;-32
2023/12/18 10:20:07;;;;;;;30.65;12.48;;;;;;;;;;5074312;28;20294;-32
2023/12/18 10:22:32;;;;;;;23.15;12.02;;;;;;;;;;5074504;28;20043;-32
2023/12/18 10:24:58;;;;;;;24.33;12.33;;;;;;;;;;5074284;28;20024;-33
2023/12/18 10:27:24;;;;;;;23.48;12.18;;;;;;;;;;5074036;28;20274;-32
2023/12/18 10:29:49;;;;;;;23.25;12.77;;;;;;;;;;5074150;28;20016;-32
2023/12/18 10:32:14;;;;;;;26.35;12.18;;;;;;;;;;5074111;28;20038;-32
2023/12/18 10:34:39;;;;;;;33.60;12.57;;;;;;;;;;5074266;28;20490;-32
2023/12/18 10:37:05;;;;;;;27.20;12.23;;;;;;;;;;5073920;28;20258;-32
2023/12/18 10:39:32;;;;;;;32.05;11.77;;;;;;;;;;5074160;28;20217;-32
2023/12/18 10:41:59;;;;;;;23.05;11.82;;;;;;;;;;5073885;28;20013;-32
2023/12/18 10:44:25;;;;;;;22.20;11.48;;;;;;;;;;5073892;28;20013;-31
2023/12/18 10:46:50;;;;;;;28.55;12.32;;;;;;;;;;5074132;28;20027;-31
2023/12/18 10:49:16;;;;;;;22.13;11.38;;;;;;;;;;5073852;28;20021;-31
2023/12/18 10:51:42;;;;;;;26.25;12.88;;;;;;;;;;5073746;28;20025;-32
2023/12/18 10:54:08;;;;;;;24.92;12.07;;;;;;;;;;5074027;28;20024;-32
2023/12/18 10:56:35;;;;;;;24.73;11.52;;;;;;;;;;5073581;28;20023;-31
2023/12/18 10:59:02;;;;;;;27.27;12.85;;;;;;;;;;5073674;28;20020;-33
2023/12/18 11:01:28;;;;;;;29.10;12.75;;;;;;;;;;5072507;28;20021;-34
2023/12/18 11:03:54;;;;;;;25.50;12.95;;;;;;;;;;5073628;28;20059;-33
2023/12/18 11:06:20;;;;;;;23.67;12.35;;;;;;;;;;5072892;28;20024;-33
2023/12/18 11:08:46;;;;;;;27.05;13.38;;;;;;;;;;5072326;28;20497;-33
2023/12/18 11:11:12;;;;;;;23.30;12.95;;;;;;;;;;5073623;28;20016;-33
2023/12/18 11:13:57;;;;;;;25.02;13.52;;;;;;;;;;5073121;28;20038;-32
2023/12/18 11:16:26;;;;;;;25.27;12.27;;;;;;;;;;5073030;28;20029;-32
2023/12/18 11:19:01;;;;;;;28.02;12.95;;;;;;;;;;5072257;28;20033;-32
2023/12/18 11:21:26;;;;;;;29.80;12.65;;;;;;;;;;5074065;28;20013;-34
2023/12/18 11:23:51;;;;;;;28.63;12.80;;;;;;;;;;5074074;28;20040;-33
2023/12/18 11:26:18;;;;;;;23.83;12.55;;;;;;;;;;5074094;28;20352;-32
2023/12/18 11:28:43;;;;;;;28.38;13.00;;;;;;;;;;5073631;28;20016;-32
2023/12/18 11:31:11;;;;;;;24.20;12.48;;;;;;;;;;5073489;28;20456;-33
2023/12/18 11:33:57;;;;;;;28.50;12.50;;;;;;;;;;5073346;28;20035;-33
2023/12/18 11:36:22;;;;;;;22.42;11.60;;;;;;;;;;5073152;28;20020;-33
2023/12/18 11:38:48;;;;;;;27.42;12.55;;;;;;;;;;5073293;28;20027;-32
2023/12/18 11:41:32;;;;;;;28.10;13.15;;;;;;;;;;5072090;28;20043;-33
2023/12/18 11:44:05;;;;;;;24.40;12.57;;;;;;;;;;5071987;28;20024;-33
2023/12/18 11:46:31;;;;;;;27.27;13.27;;;;;;;;;;5073536;28;20017;-34
2023/12/18 11:48:59;;;;;;;25.15;13.70;;;;;;;;;;5073168;28;20021;-34
2023/12/18 11:51:25;;;;;;;32.90;12.43;;;;;;;;;;5073503;28;20460;-34
2023/12/18 11:53:57;;;;;;;38.00;15.18;;;;;;;;;;5073199;28;20027;-34
2023/12/18 11:56:22;;;;;;;26.23;12.68;;;;;;;;;;5073611;28;20025;-33
2023/12/18 11:58:48;;;;;;;26.33;12.83;;;;;;;;;;5073443;28;20037;-34
2023/12/18 12:01:13;;;;;;;26.45;12.18;;;;;;;;;;5073350;28;20730;-34
2023/12/18 12:03:39;;;;;;;26.08;12.10;;;;;;;;;;5071708;28;20052;-33
2023/12/18 12:06:07;;;;;;;25.27;12.40;;;;;;;;;;5073076;28;20033;-37
2023/12/18 12:08:32;;;;;;;24.30;12.52;;;;;;;;;;5073240;28;20024;-32
2023/12/18 12:10:58;;;;;;;27.65;12.52;;;;;;;;;;5073102;28;20437;-33
2023/12/18 12:13:24;;;;;;;34.35;14.48;;;;;;;;;;5071756;28;20059;-33
2023/12/18 12:15:53;;;;;;;29.20;13.00;;;;;;;;;;5071607;28;20451;-33
2023/12/18 12:18:18;;;;;;;28.77;13.75;;;;;;;;;;5072913;28;20024;-33
2023/12/18 12:20:44;;;;;;;30.80;13.13;;;;;;;;;;5073258;28;20039;-33
2023/12/18 12:23:09;;;;;;;25.27;12.40;;;;;;;;;;5073186;28;20419;-33
2023/12/18 12:25:34;;;;;;;27.42;13.20;;;;;;;;;;5076426;28;20086;-33
2023/12/18 12:27:59;;;;;;;24.48;12.95;;;;;;;;;;5076530;28;20016;-37
2023/12/18 12:30:25;;;;;;;34.73;13.07;;;;;;;;;;5076413;28;20059;-33
2023/12/18 12:32:52;;;;;;;29.42;12.50;;;;;;;;;;5076450;28;20652;-33
2023/12/18 12:35:18;;;;;;;21.88;12.93;;;;;;;;;;5076494;28;20024;-33
2023/12/18 12:37:43;;;;;;;36.90;13.88;;;;;;;;;;5076563;28;20375;-33
2023/12/18 12:40:09;;;;;;;28.55;13.10;;;;;;;;;;5076279;28;20020;-33
2023/12/18 12:42:38;;;;;;;30.90;13.07;;;;;;;;;;5074962;28;20032;-33
2023/12/18 12:45:06;;;;;;;28.80;13.23;;;;;;;;;;5076405;28;20021;-33
2023/12/18 12:47:32;;;;;;;30.20;13.43;;;;;;;;;;5076047;28;20040;-33
2023/12/18 12:50:01;;;;;;;27.70;13.32;;;;;;;;;;5074889;28;20422;-33
2023/12/18 12:52:28;;;;;;;28.92;13.40;;;;;;;;;;5076059;28;20099;-33
2023/12/18 12:54:53;;;;;;;31.20;13.57;;;;;;;;;;5075960;28;20087;-33
2023/12/18 12:57:19;;;;;;;29.33;12.50;;;;;;;;;;5076022;28;20503;-33
2023/12/18 12:59:51;;;;;;;27.25;12.80;;;;;;;;;;5075030;28;20259;-33
2023/12/18 13:02:17;;;;;;;30.80;12.95;;;;;;;;;;5075724;28;20120;-32
2023/12/18 13:04:42;;;;;;;25.98;12.55;;;;;;;;;;5074682;28;20487;-33
2023/12/18 13:07:07;;;;;;;26.87;12.90;;;;;;;;;;5076338;28;20052;-33
2023/12/18 13:09:33;;;;;;;26.25;12.77;;;;;;;;;;5074392;28;20266;-35
2023/12/18 13:12:02;;;;;;;27.77;13.27;;;;;;;;;;5074438;28;20013;-33
2023/12/18 13:14:27;;;;;;;30.95;14.18;;;;;;;;;;5074377;28;20074;-34
2023/12/18 13:16:52;;;;;;;29.73;13.70;;;;;;;;;;5075533;28;20016;-34
2023/12/18 13:19:17;;;;;;;29.88;12.60;;;;;;;;;;5074347;28;20020;-33
2023/12/18 13:21:43;;;;;;;23.80;12.80;;;;;;;;;;5076110;28;20017;-33
2023/12/18 13:24:08;;;;;;;28.80;13.40;;;;;;;;;;5075491;28;20659;-34
2023/12/18 13:26:33;;;;;;;31.73;12.67;;;;;;;;;;5074899;28;20021;-33
2023/12/18 13:28:58;;;;;;;32.47;13.57;;;;;;;;;;5074479;28;20271;-34
2023/12/18 13:31:24;;;;;;;29.25;13.40;;;;;;;;;;5073030;28;20492;-34
2023/12/18 13:33:49;;;;;;;30.65;12.82;;;;;;;;;;5071940;28;20379;-34
2023/12/18 13:36:14;;;;;;;31.88;12.30;;;;;;;;;;5072313;28;20021;-33
2023/12/18 13:38:40;;;;;;;27.05;11.95;;;;;;;;;;5073156;28;20460;-34
2023/12/18 13:41:05;;;;;;;24.60;12.27;;;;;;;;;;5073079;28;20096;-34
2023/12/18 13:43:30;;;;;;;28.27;13.35;;;;;;;;;;5071909;28;20283;-34
2023/12/18 13:45:55;;;;;;;26.60;12.83;;;;;;;;;;5073718;28;20090;-34
2023/12/18 13:48:21;;;;;;;23.50;11.80;;;;;;;;;;5075585;28;20259;-34
2023/12/18 13:50:46;;;;;;;26.73;11.88;;;;;;;;;;5075458;28;20781;-33
2023/12/18 13:53:13;;;;;;;29.23;12.40;;;;;;;;;;5075191;28;20104;-33
2023/12/18 13:55:38;;;;;;;23.00;12.18;;;;;;;;;;5075407;28;20440;-33
2023/12/18 13:58:03;;;;;;;25.92;11.80;;;;;;;;;;5074974;28;20016;-34
2023/12/18 14:00:28;;;;;;;30.13;12.02;;;;;;;;;;5075071;28;20024;-33
2023/12/18 14:02:54;;;;;;;28.50;13.10;;;;;;;;;;5073270;28;20399;-33
2023/12/18 14:05:20;;;;;;;21.43;11.77;;;;;;;;;;5074929;28;20028;-33
2023/12/18 14:07:46;;;;;;;21.13;11.30;;;;;;;;;;5074744;28;20344;-34